Time;durP1;ratioP1;P1;durP2;ratioP2;P2;SDS_P1;SDS_P2;PMS_P1;PMS_P2;Temp;Humidity;BMP_temperature;BMP_pressure;BME280_temperature;BME280_humidity;BME280_pressure;Samples;Min_cycle;Max_cycle;Signal;HPM_P1;HPM_P2
2024/04/13 00:01:58;;;;;;;;;19.00;18.25;;;;;17.76;55.02;101748.59;146620;667;47012;-70
2024/04/13 00:05:13;;;;;;;;;20.75;18.75;;;;;17.74;55.25;101750.25;146615;624;47014;-70
2024/04/13 00:08:16;;;;;;;;;22.50;20.25;;;;;17.63;56.10;101749.84;146620;576;47010;-72
2024/04/13 00:11:18;;;;;;;;;18.25;16.50;;;;;17.55;56.39;101746.00;146618;584;46017;-72
2024/04/13 00:14:24;;;;;;;;;22.50;20.75;;;;;17.43;54.70;101741.19;146620;669;46020;-68
2024/04/13 00:17:21;;;;;;;;;19.25;18.75;;;;;17.42;57.99;101747.25;146617;566;47015;-70
2024/04/13 00:20:23;;;;;;;;;22.25;21.25;;;;;17.39;57.22;101735.75;146620;588;46020;-69
2024/04/13 00:23:37;;;;;;;;;19.25;18.00;;;;;17.34;57.26;101743.44;146618;613;46914;-69
2024/04/13 00:26:29;;;;;;;;;17.00;16.00;;;;;17.31;57.33;101746.81;146622;583;46010;-71
2024/04/13 00:29:27;;;;;;;;;20.50;20.25;;;;;17.32;57.48;101758.22;146616;687;46914;-71
2024/04/13 00:32:29;;;;;;;;;19.25;18.50;;;;;17.35;57.33;101750.44;146618;600;46020;-69
2024/04/13 00:35:22;;;;;;;;;22.25;20.00;;;;;17.39;57.97;101751.50;146613;611;46016;-70
2024/04/13 00:38:43;;;;;;;;;;;;;;;;;;;;;
2024/04/13 00:41:54;;;;;;;;;21.00;19.25;;;;;17.28;57.28;101751.94;146616;690;46016;-69
2024/04/13 00:45:04;;;;;;;;;22.25;20.00;;;;;17.28;57.46;101745.81;146617;593;47012;-69
2024/04/13 00:48:40;;;;;;;;;20.75;19.25;;;;;17.17;55.67;101726.16;146614;606;46013;-71
2024/04/13 00:51:35;;;;;;;;;18.00;18.00;;;;;17.31;57.71;101745.94;146613;569;46010;-70
2024/04/13 00:54:46;;;;;;;;;19.00;18.00;;;;;17.31;55.27;101740.69;146612;592;46017;-69
2024/04/13 00:57:45;;;;;;;;;21.00;19.25;;;;;17.34;58.17;101739.91;146616;569;46020;-69
2024/04/13 01:00:42;;;;;;;;;17.50;15.50;;;;;17.34;57.61;101734.69;146611;606;46016;-70
2024/04/13 01:03:45;;;;;;;;;21.50;18.25;;;;;17.31;57.42;101730.19;146615;712;46021;-69
2024/04/13 01:06:57;;;;;;;;;22.75;20.00;;;;;17.32;57.46;101732.00;146607;668;47014;-70
2024/04/13 01:09:58;;;;;;;;;18.75;17.25;;;;;17.31;57.66;101727.59;146614;645;46021;-69
2024/04/13 01:13:04;;;;;;;;;20.00;19.00;;;;;17.31;57.84;101728.47;146614;591;46012;-68
2024/04/13 01:16:35;;;;;;;;;20.25;19.25;;;;;17.36;56.24;101738.25;146616;570;46020;-69
2024/04/13 01:19:34;;;;;;;;;21.25;19.00;;;;;17.43;57.26;101733.31;146612;719;46012;-68
2024/04/13 01:22:30;;;;;;;;;18.25;16.75;;;;;17.49;57.05;101735.28;146615;596;46020;-70
2024/04/13 01:25:26;;;;;;;;;20.50;19.50;;;;;17.49;56.87;101740.53;146609;569;46016;-68
2024/04/13 01:28:22;;;;;;;;;20.25;17.00;;;;;17.42;58.20;101747.25;146614;579;46020;-69
2024/04/13 01:31:40;;;;;;;;;19.00;18.25;;;;;17.26;56.43;101740.53;146612;575;46016;-69
2024/04/13 01:34:44;;;;;;;;;20.00;18.50;;;;;17.21;57.45;101733.28;146615;563;46020;-71
2024/04/13 01:37:44;;;;;;;;;16.25;15.75;;;;;17.17;57.84;101747.12;146610;581;46016;-68
2024/04/13 01:40:46;;;;;;;;;19.25;18.25;;;;;17.11;57.37;101734.66;146616;621;46021;-69
2024/04/13 01:43:45;;;;;;;;;16.75;16.00;;;;;17.07;58.48;101743.19;146609;620;47012;-67
2024/04/13 01:46:42;;;;;;;;;22.25;21.25;;;;;17.03;59.26;101736.06;146614;574;46011;-69
2024/04/13 01:50:02;;;;;;;;;17.00;16.75;;;;;16.43;57.26;101647.13;146630;586;46016;-68
2024/04/13 01:52:59;;;;;;;;;21.00;19.25;;;;;16.98;59.45;101732.38;146637;623;45021;-70
2024/04/13 01:55:54;;;;;;;;;19.00;18.00;;;;;16.99;59.82;101734.16;146632;574;45016;-70
2024/04/13 01:58:58;;;;;;;;;22.25;19.75;;;;;16.92;60.15;101742.59;146637;651;45020;-70
2024/04/13 02:02:00;;;;;;;;;17.50;17.50;;;;;16.84;60.67;101730.06;146632;672;46016;-71
2024/04/13 02:05:06;;;;;;;;;19.50;17.50;;;;;16.80;59.72;101735.13;146635;574;45020;-70
2024/04/13 02:08:23;;;;;;;;;16.50;14.75;;;;;16.79;59.38;101738.53;146635;608;45915;-71
2024/04/13 02:11:19;;;;;;;;;17.50;17.00;;;;;16.82;59.65;101741.28;146631;569;45021;-69
2024/04/13 02:14:17;;;;;;;;;19.25;18.00;;;;;16.85;59.30;101741.41;146632;739;46012;-71
2024/04/13 02:17:23;;;;;;;;;16.50;15.50;;;;;16.87;60.08;101739.78;146636;619;45045;-71
2024/04/13 02:20:23;;;;;;;;;20.50;17.00;;;;;16.83;59.75;101737.88;146630;587;45016;-69
2024/04/13 02:23:36;;;;;;;;;20.75;17.75;;;;;16.76;60.08;101744.56;146633;565;46013;-69
2024/04/13 02:26:40;;;;;;;;;16.75;16.75;;;;;16.66;59.51;101742.34;146636;633;45017;-70
2024/04/13 02:29:53;;;;;;;;;;;;;;;;;;;;;
2024/04/13 02:33:06;;;;;;;;;24.75;19.50;;;;;16.56;60.23;101746.28;146631;585;46012;-71
2024/04/13 02:36:20;;;;;;;;;19.25;17.75;;;;;16.14;59.20;101686.03;146635;589;45020;-71
2024/04/13 02:39:37;;;;;;;;;21.00;18.25;;;;;16.50;61.38;101737.28;146636;589;45016;-72
2024/04/13 02:42:53;;;;;;;;;18.75;16.00;;;;;16.45;61.33;101744.94;146636;571;45020;-71
2024/04/13 02:45:52;;;;;;;;;19.75;17.00;;;;;16.45;60.72;101744.94;146635;581;45013;-69
2024/04/13 02:48:52;;;;;;;;;19.75;18.00;;;;;16.48;60.46;101750.31;146616;610;46020;-70
2024/04/13 02:51:50;;;;;;;;;20.25;19.50;;;;;16.47;61.21;101747.63;146611;633;46014;-70
2024/04/13 02:54:45;;;;;;;;;21.75;18.75;;;;;16.43;62.10;101751.84;146614;594;46021;-72
2024/04/13 02:57:50;;;;;;;;;17.25;16.00;;;;;16.39;60.56;101744.69;146609;599;46016;-73
2024/04/13 03:01:07;;;;;;;;;18.75;17.75;;;;;16.34;60.08;101743.56;146614;573;46021;-73
2024/04/13 03:04:14;;;;;;;;;;;;;;;;;;;;;
2024/04/13 03:07:19;;;;;;;;;20.00;20.00;;;;;16.26;63.06;101744.94;146615;613;46010;-73
2024/04/13 03:10:32;;;;;;;;;;;;;;;;;;;;;
2024/04/13 03:13:39;;;;;;;;;18.00;16.75;;;;;16.22;61.08;101741.31;146613;653;46022;-72
2024/04/13 03:16:37;;;;;;;;;21.50;19.50;;;;;16.25;61.49;101748.41;146611;566;46013;-72
2024/04/13 03:19:42;;;;;;;;;18.00;17.00;;;;;15.93;61.46;101688.56;146614;605;46020;-74
2024/04/13 03:22:45;;;;;;;;;17.00;16.00;;;;;16.28;61.53;101741.56;146613;569;47015;-74
2024/04/13 03:25:38;;;;;;;;;18.50;15.25;;;;;16.32;61.66;101740.91;146615;579;47010;-69
2024/04/13 03:28:35;;;;;;;;;18.00;15.75;;;;;16.31;61.32;101754.78;146614;639;46016;-69
2024/04/13 03:31:43;;;;;;;;;18.00;17.25;;;;;16.29;61.49;101756.47;146613;638;46021;-68
2024/04/13 03:34:37;;;;;;;;;17.50;16.25;;;;;16.28;61.65;101759.91;146612;563;46016;-69
2024/04/13 03:37:36;;;;;;;;;26.00;23.50;;;;;16.24;61.87;101760.59;146616;599;46012;-71
2024/04/13 03:40:38;;;;;;;;;22.00;19.50;;;;;16.16;62.85;101770.69;146609;577;46914;-69
2024/04/13 03:43:41;;;;;;;;;21.75;20.00;;;;;16.05;62.94;101768.44;146616;604;45020;-71
2024/04/13 03:46:46;;;;;;;;;22.50;20.50;;;;;15.97;63.93;101770.69;146609;593;47017;-69
2024/04/13 03:49:43;;;;;;;;;19.50;16.75;;;;;15.94;65.03;101767.94;146636;586;45020;-71
2024/04/13 03:52:39;;;;;;;;;22.50;19.00;;;;;15.88;64.81;101760.69;146636;567;45012;-67
2024/04/13 03:55:51;;;;;;;;;20.50;20.25;;;;;15.90;65.23;101763.41;146638;641;45010;-68
2024/04/13 03:58:56;;;;;;;;;19.00;19.00;;;;;15.98;64.06;101768.97;146633;596;46012;-68
2024/04/13 04:02:03;;;;;;;;;18.25;17.50;;;;;16.07;64.24;101772.91;146633;576;45021;-69
2024/04/13 04:05:04;;;;;;;;;22.75;20.50;;;;;16.20;62.52;101763.91;146634;627;45016;-68
2024/04/13 04:08:12;;;;;;;;;21.25;20.00;;;;;16.32;62.03;101766.16;146636;586;45011;-69
2024/04/13 04:11:04;;;;;;;;;21.75;20.75;;;;;16.43;62.40;101766.66;146636;569;46012;-69
2024/04/13 04:14:01;;;;;;;;;23.50;20.50;;;;;16.49;61.97;101770.41;146635;658;45020;-74
2024/04/13 04:17:11;;;;;;;;;24.00;20.50;;;;;16.54;62.17;101773.22;146629;589;45021;-77
2024/04/13 04:20:17;;;;;;;;;18.50;18.25;;;;;16.56;60.97;101764.63;146637;578;46010;-72
2024/04/13 04:23:23;;;;;;;;;19.25;17.00;;;;;16.57;61.71;101774.28;146633;642;46014;-70
2024/04/13 04:26:15;;;;;;;;;19.00;18.00;;;;;16.62;61.80;101780.59;146638;585;45030;-69
2024/04/13 04:29:17;;;;;;;;;20.75;20.75;;;;;16.66;62.01;101789.47;146631;643;45017;-72
2024/04/13 04:32:24;;;;;;;;;18.50;18.00;;;;;16.65;62.15;101784.19;146636;586;44021;-73
2024/04/13 04:35:20;;;;;;;;;19.00;18.50;;;;;16.63;62.20;101787.62;146628;565;47016;-72
2024/04/13 04:38:23;;;;;;;;;19.00;18.00;;;;;16.65;61.39;101795.53;146636;689;45012;-73
2024/04/13 04:41:27;;;;;;;;;19.00;16.75;;;;;16.71;62.91;101802.78;146634;656;45912;-74
2024/04/13 04:44:22;;;;;;;;;23.75;20.50;;;;;16.82;64.14;101784.12;146638;564;45010;-73
2024/04/13 04:47:19;;;;;;;;;26.00;23.75;;;;;17.02;62.48;101798.06;146618;591;46020;-73
2024/04/13 04:50:12;;;;;;;;;22.00;20.50;;;;;17.22;61.92;101792.75;146622;621;47010;-75
2024/04/13 04:53:19;;;;;;;;;24.25;22.00;;;;;17.40;61.99;101796.13;146617;639;46016;-73
2024/04/13 04:56:18;;;;;;;;;22.00;19.75;;;;;17.59;60.84;101795.13;146619;606;46021;-72
2024/04/13 04:59:23;;;;;;;;;18.50;18.50;;;;;17.76;59.59;101801.03;146617;576;46012;-72
2024/04/13 05:02:27;;;;;;;;;23.50;22.25;;;;;17.97;58.95;101801.91;146621;576;46020;-71
2024/04/13 05:05:19;;;;;;;;;29.25;28.25;;;;;18.20;60.31;101800.16;146616;600;46016;-72
2024/04/13 05:08:34;;;;;;;;;33.25;29.25;;;;;18.14;57.73;101746.53;146618;600;47010;-71
2024/04/13 05:11:26;;;;;;;;;49.50;39.00;;;;;18.63;59.83;101804.34;146616;642;47012;-72
2024/04/13 05:14:42;;;;;;;;;48.00;39.75;;;;;18.88;56.92;101795.59;146621;609;46020;-71
2024/04/13 05:18:04;;;;;;;;;43.00;35.25;;;;;18.74;56.63;101728.53;146615;572;47017;-71
2024/04/13 05:21:03;;;;;;;;;56.25;42.25;;;;;19.36;57.41;101805.97;146622;622;46010;-71
2024/04/13 05:24:15;;;;;;;;;38.50;30.00;;;;;19.56;55.13;101805.69;146614;618;46017;-69
2024/04/13 05:27:07;;;;;;;;;41.00;34.75;;;;;19.76;55.57;101801.12;146619;601;46020;-70
2024/04/13 05:30:04;;;;;;;;;35.50;31.00;;;;;19.94;53.98;101800.78;146617;609;46016;-70
2024/04/13 05:33:38;;;;;;;;;;;;;;;;;;;;;
2024/04/13 05:36:35;;;;;;;;;34.50;30.00;;;;;20.22;53.38;101794.59;146614;596;47016;-70
2024/04/13 05:39:30;;;;;;;;;29.25;28.00;;;;;20.32;52.88;101795.75;146619;579;46021;-72
2024/04/13 05:42:30;;;;;;;;;37.00;32.00;;;;;20.45;53.00;101797.88;146614;624;47012;-71
2024/04/13 05:45:29;;;;;;;;;28.25;27.50;;;;;20.58;51.50;101791.22;146620;596;46029;-72
2024/04/13 05:48:41;;;;;;;;;33.25;28.75;;;;;20.68;52.04;101802.03;146614;584;46017;-71
2024/04/13 05:51:38;;;;;;;;;34.75;31.25;;;;;20.85;51.34;101784.06;146635;572;45020;-72
2024/04/13 05:54:35;;;;;;;;;31.50;26.75;;;;;21.05;52.30;101792.47;146634;624;45017;-71
2024/04/13 05:57:37;;;;;;;;;28.50;27.50;;;;;21.27;51.65;101803.56;146634;631;46012;-72
2024/04/13 06:00:37;;;;;;;;;29.00;27.75;;;;;21.50;50.78;101797.13;146630;566;45016;-72
2024/04/13 06:03:32;;;;;;;;;35.00;29.25;;;;;21.71;50.25;101801.97;146633;566;45021;-73
2024/04/13 06:06:31;;;;;;;;;33.00;29.00;;;;;21.90;49.75;101808.59;146633;614;45914;-75
2024/04/13 06:09:32;;;;;;;;;33.00;30.50;;;;;22.09;49.69;101809.87;146637;575;45021;-73
2024/04/13 06:12:28;;;;;;;;;26.75;24.50;;;;;22.28;49.37;101808.56;146628;569;46016;-74
2024/04/13 06:15:30;;;;;;;;;29.50;26.00;;;;;22.45;47.91;101806.22;146632;583;46020;-74
2024/04/13 06:18:26;;;;;;;;;30.75;27.25;;;;;22.55;47.57;101808.19;146632;686;46016;-74
2024/04/13 06:21:23;;;;;;;;;31.50;28.00;;;;;22.65;48.27;101811.88;146636;588;45020;-74
2024/04/13 06:24:26;;;;;;;;;26.25;25.00;;;;;22.79;47.67;101806.00;146632;585;46014;-74
2024/04/13 06:27:21;;;;;;;;;30.00;27.25;;;;;22.98;48.17;101806.37;146637;606;45010;-74
2024/04/13 06:30:28;;;;;;;;;27.75;26.75;;;;;23.16;47.67;101809.34;146629;607;46015;-75
2024/04/13 06:33:44;;;;;;;;;23.25;21.25;;;;;23.32;47.61;101802.53;146631;599;46020;-69
2024/04/13 06:36:43;;;;;;;;;27.75;26.50;;;;;23.55;47.04;101812.59;146633;608;46014;-72
2024/04/13 06:39:53;;;;;;;;;27.50;26.25;;;;;23.71;46.29;101815.53;146634;596;45026;-70
2024/04/13 07:32:22;;;;;;;;;32.50;29.25;;;;;24.22;47.62;101825.91;146629;564;46012;-73
2024/04/13 07:35:21;;;;;;;;;34.50;29.50;;;;;24.38;46.75;101827.88;146603;693;46030;-73
2024/04/13 07:38:33;;;;;;;;;32.25;28.25;;;;;24.51;46.15;101821.00;146608;650;46020;-72
2024/04/13 07:41:39;;;;;;;;;31.00;28.50;;;;;24.60;46.88;101823.75;146604;566;46911;-73
2024/04/13 07:44:56;;;;;;;;;31.50;28.25;;;;;24.69;46.12;101821.19;146608;579;46030;-68
2024/04/13 07:48:02;;;;;;;;;30.75;28.75;;;;;24.75;46.25;101826.56;146603;569;46909;-70
2024/04/13 07:51:04;;;;;;;;;27.50;24.50;;;;;24.90;46.14;101828.50;146608;585;46009;-71
2024/04/13 07:54:09;;;;;;;;;29.75;27.50;;;;;25.07;45.94;101828.62;146600;601;47010;-71
2024/04/13 07:57:23;;;;;;;;;32.25;28.00;;;;;25.21;46.32;101828.81;146606;609;46020;-69
2024/04/13 08:00:20;;;;;;;;;27.50;25.00;;;;;25.33;44.64;101821.81;146597;630;47030;-64
2024/04/13 08:03:22;;;;;;;;;23.50;23.25;;;;;25.40;44.39;101813.91;146607;581;47008;-67
2024/04/13 08:06:20;;;;;;;;;26.00;24.50;;;;;25.46;43.34;101819.25;146603;566;46017;-69
2024/04/13 08:09:23;;;;;;;;;26.75;23.25;;;;;25.35;44.42;101822.72;146606;598;47020;-70
2024/04/13 08:12:21;;;;;;;;;24.25;23.00;;;;;25.26;44.38;101817.31;146604;610;46911;-69
2024/04/13 08:15:23;;;;;;;;;25.00;23.75;;;;;25.22;43.76;101819.94;146607;634;47008;-71
2024/04/13 08:18:17;;;;;;;;;24.00;22.75;;;;;25.21;45.77;101821.72;146602;572;46016;-70
2024/04/13 08:21:28;;;;;;;;;23.75;23.50;;;;;25.17;46.46;101819.94;146608;570;46020;-70
2024/04/13 08:24:32;;;;;;;;;24.25;23.25;;;;;25.11;45.79;101817.19;146603;641;46016;-68
2024/04/13 08:27:31;;;;;;;;;20.00;19.25;;;;;25.02;46.27;101818.00;146605;564;47008;-69
2024/04/13 08:30:42;;;;;;;;;20.00;19.75;;;;;24.42;46.50;101706.03;146603;577;46016;-68
2024/04/13 08:33:48;;;;;;;;;21.75;20.50;;;;;25.21;44.33;101805.81;146605;676;47047;-69
2024/04/13 08:36:48;;;;;;;;;21.25;21.25;;;;;25.28;45.22;101807.63;146603;640;46016;-70
2024/04/13 08:39:56;;;;;;;;;22.75;20.50;;;;;25.34;45.19;101801.47;146599;587;48020;-70
2024/04/13 08:43:09;;;;;;;;;23.75;22.25;;;;;25.33;47.38;101805.00;146603;571;46017;-74
2024/04/13 08:46:27;;;;;;;;;20.75;20.50;;;;;24.86;46.28;101705.53;146604;576;47008;-76
2024/04/13 08:49:39;;;;;;;;;22.00;21.75;;;;;25.48;45.85;101806.87;146602;584;46016;-73
2024/04/13 08:52:36;;;;;;;;;19.00;18.00;;;;;25.68;45.06;101815.88;146607;592;46020;-73
2024/04/13 08:55:52;;;;;;;;;24.25;21.00;;;;;25.99;46.32;101821.41;146601;585;47010;-77
2024/04/13 08:59:26;;;;;;;;;23.00;21.75;;;;;26.17;45.82;101807.31;146603;569;47008;-74
2024/04/13 09:02:27;;;;;;;;;19.50;16.75;;;;;25.62;44.12;101714.91;146605;571;46915;-74
2024/04/13 09:05:26;;;;;;;;;21.50;20.75;;;;;26.15;43.86;101798.44;146602;564;48008;-74
2024/04/13 09:08:24;;;;;;;;;25.00;22.50;;;;;26.08;43.74;101793.97;146603;598;46016;-72
2024/04/13 09:11:43;;;;;;;;;17.25;17.00;;;;;25.98;40.84;101798.34;146604;617;47008;-75
2024/04/13 09:14:46;;;;;;;;;19.25;19.25;;;;;25.75;42.61;101801.72;146598;605;47010;-75
2024/04/13 09:17:48;;;;;;;;;17.00;17.00;;;;;25.58;43.27;101799.00;146608;577;46020;-74
2024/04/13 09:21:07;;;;;;;;;21.75;18.75;;;;;25.52;44.76;101806.03;146602;618;47012;-73
2024/04/13 09:24:28;;;;;;;;;19.00;17.75;;;;;25.46;44.46;101801.56;146608;591;46020;-76
2024/04/13 09:27:34;;;;;;;;;22.50;22.25;;;;;24.26;45.19;101621.88;146602;592;47012;-76
2024/04/13 09:30:46;;;;;;;;;18.25;17.00;;;;;25.15;43.37;101805.75;146605;573;47008;-76
2024/04/13 09:34:05;;;;;;;;;19.50;17.75;;;;;25.02;43.05;101791.47;146598;590;48914;-75
2024/04/13 09:37:26;;;;;;;;;19.25;17.00;;;;;23.79;44.98;101616.13;146607;648;46020;-76
2024/04/13 09:40:41;;;;;;;;;14.00;12.75;;;;;23.65;44.42;101608.88;146603;638;46019;-74
2024/04/13 09:43:51;;;;;;;;;;;;;;;;;;;;;
2024/04/13 09:47:01;;;;;;;;;18.75;18.00;;;;;24.63;44.81;101791.97;146602;619;47010;-74
2024/04/13 09:50:11;;;;;;;;;18.50;16.50;;;;;24.76;44.57;101795.63;146606;707;46021;-75
2024/04/13 09:53:09;;;;;;;;;18.25;16.25;;;;;25.05;44.03;101788.84;146602;576;47010;-75
2024/04/13 09:56:15;;;;;;;;;14.00;14.00;;;;;24.24;42.81;101621.00;146606;662;46020;-76
2024/04/13 09:59:24;;;;;;;;;18.00;16.50;;;;;25.24;43.15;101779.28;146603;653;47012;-74
2024/04/13 10:02:28;;;;;;;;;;;;;;;;;;;;;
2024/04/13 10:05:47;;;;;;;;;18.50;16.25;;;;;24.18;43.50;101571.47;146604;600;47016;-74
2024/04/13 10:09:01;;;;;;;;;18.00;16.50;;;;;24.32;44.14;101581.31;146606;565;47020;-72
2024/04/13 10:12:23;;;;;;;;;16.50;15.25;;;;;24.91;43.76;101656.94;146602;575;46912;-74
2024/04/13 10:15:38;;;;;;;;;16.00;16.00;;;;;25.77;43.53;101767.22;146606;578;47010;-75
2024/04/13 10:18:37;;;;;;;;;18.25;16.00;;;;;26.08;42.33;101762.09;146604;648;46016;-74
2024/04/13 10:22:19;;;;;;;;;13.75;13.00;;;;;25.27;43.07;101585.53;146607;600;46020;-75
2024/04/13 10:25:18;;;;;;;;;18.50;16.25;;;;;26.31;41.65;101759.47;146600;569;46016;-71
2024/04/13 10:28:16;;;;;;;;;17.00;16.75;;;;;26.37;42.36;101755.06;146609;563;46021;-74
2024/04/13 10:31:25;;;;;;;;;16.50;15.75;;;;;26.53;42.89;101755.13;146601;572;46016;-73
2024/04/13 10:34:17;;;;;;;;;16.75;15.25;;;;;26.64;40.45;101756.94;146606;605;47008;-77
2024/04/13 10:37:28;;;;;;;;;20.25;17.75;;;;;26.65;40.63;101745.41;146604;565;46016;-74
2024/04/13 10:40:28;;;;;;;;;16.25;16.25;;;;;26.66;41.09;101732.97;146608;586;46021;-74
2024/04/13 10:43:48;;;;;;;;;18.50;16.50;;;;;26.78;40.24;101742.75;146605;579;46016;-78
2024/04/13 10:46:57;;;;;;;;;19.50;16.25;;;;;26.88;41.58;101736.53;146602;574;48008;-77
2024/04/13 10:50:16;;;;;;;;;19.50;17.00;;;;;27.02;41.16;101734.75;146600;604;47012;-73
2024/04/13 10:53:25;;;;;;;;;;;;;;;;;;;;;
2024/04/13 10:56:45;;;;;;;;;14.00;14.00;;;;;26.76;40.36;101732.13;146602;670;47010;-74
2024/04/13 10:59:46;;;;;;;;;18.50;17.00;;;;;26.60;41.43;101725.88;146604;588;47008;-76
2024/04/13 11:02:56;;;;;;;;;18.00;14.75;;;;;26.56;41.57;101726.75;146603;576;47016;-75
2024/04/13 11:06:02;;;;;;;;;18.00;16.50;;;;;26.53;41.44;101728.53;146609;582;46020;-78
2024/04/13 11:09:00;;;;;;;;;17.75;17.75;;;;;26.42;41.45;101725.84;146600;577;47914;-74
2024/04/13 11:12:22;;;;;;;;;15.50;15.50;;;;;26.38;42.43;101726.69;146605;682;47008;-75
2024/04/13 11:15:30;;;;;;;;;18.25;17.00;;;;;26.43;41.87;101725.84;146601;587;46912;-74
2024/04/13 11:18:28;;;;;;;;;17.75;16.50;;;;;26.54;42.00;101722.31;146606;579;47008;-74
2024/04/13 11:21:43;;;;;;;;;17.50;16.75;;;;;26.64;41.84;101710.81;146601;614;48010;-74
2024/04/13 11:24:57;;;;;;;;;15.75;15.75;;;;;25.67;41.48;101518.34;146609;635;46008;-73
2024/04/13 11:27:58;;;;;;;;;21.75;19.50;;;;;26.82;41.21;101710.84;146603;603;46016;-75
2024/04/13 11:31:02;;;;;;;;;17.00;15.50;;;;;26.86;41.59;101712.59;146605;663;47008;-74
2024/04/13 11:33:57;;;;;;;;;20.25;18.75;;;;;26.92;40.90;101698.41;146603;680;46017;-72
2024/04/13 11:36:53;;;;;;;;;18.50;16.00;;;;;27.02;40.32;101686.84;146604;666;47010;-74
2024/04/13 11:39:51;;;;;;;;;18.75;17.50;;;;;27.12;40.39;101696.59;146605;571;46016;-77
2024/04/13 11:42:55;;;;;;;;;17.50;16.50;;;;;27.13;40.38;101681.50;146606;577;46020;-75
2024/04/13 11:45:54;;;;;;;;;19.25;18.25;;;;;27.21;40.37;101692.19;146601;577;47010;-75
2024/04/13 11:49:09;;;;;;;;;14.75;14.75;;;;;27.25;39.76;101685.94;146606;597;47010;-75
2024/04/13 11:52:18;;;;;;;;;16.25;14.25;;;;;27.25;40.16;101683.28;146601;590;47010;-76
2024/04/13 11:55:17;;;;;;;;;16.25;16.25;;;;;27.29;39.56;101683.28;146608;606;46021;-75
2024/04/13 11:58:35;;;;;;;;;19.25;16.75;;;;;27.33;39.49;101669.06;146603;580;46010;-74
2024/04/13 12:01:32;;;;;;;;;14.75;14.75;;;;;27.33;40.05;101674.41;146606;588;47008;-75
2024/04/13 12:04:39;;;;;;;;;13.00;11.75;;;;;27.30;39.93;101662.88;146604;566;47012;-70
2024/04/13 12:07:44;;;;;;;;;16.50;15.50;;;;;27.27;39.85;101670.87;146610;648;46008;-73
2024/04/13 12:10:48;;;;;;;;;15.00;14.75;;;;;27.17;41.29;101672.66;146603;564;46017;-73
2024/04/13 12:13:52;;;;;;;;;18.00;15.75;;;;;27.10;41.28;101660.19;146607;633;46020;-72
2024/04/13 12:17:08;;;;;;;;;14.75;14.75;;;;;26.60;42.17;101576.91;146605;576;46016;-71
2024/04/13 12:20:05;;;;;;;;;16.50;16.00;;;;;27.12;40.16;101661.09;146606;673;46020;-74
2024/04/13 12:23:00;;;;;;;;;19.25;17.50;;;;;27.13;40.43;101660.19;146604;565;46910;-70
2024/04/13 12:26:04;;;;;;;;;17.50;16.50;;;;;27.14;40.70;101656.69;146606;567;47008;-72
2024/04/13 12:29:12;;;;;;;;;16.75;16.00;;;;;27.10;41.13;101655.78;146605;613;46016;-73
2024/04/13 12:32:14;;;;;;;;;12.50;12.50;;;;;27.13;40.07;101646.87;146607;656;47020;-73
2024/04/13 12:35:24;;;;;;;;;16.75;15.25;;;;;27.18;41.71;101640.69;146602;656;46914;-73
2024/04/13 12:38:31;;;;;;;;;16.00;15.25;;;;;27.24;40.30;101634.47;146608;580;46021;-72
2024/04/13 12:41:42;;;;;;;;;15.50;13.50;;;;;27.26;41.39;101638.03;146599;595;47010;-72
2024/04/13 12:44:44;;;;;;;;;16.00;15.00;;;;;27.26;39.92;101632.69;146602;612;47008;-72
2024/04/13 12:47:59;;;;;;;;;14.50;13.00;;;;;27.26;40.75;101629.13;146599;638;47012;-72
2024/04/13 12:50:59;;;;;;;;;18.25;17.00;;;;;27.16;39.81;101626.50;146608;604;46008;-73
2024/04/13 12:54:02;;;;;;;;;16.25;15.25;;;;;27.10;40.54;101618.53;146603;652;46016;-72
2024/04/13 12:57:04;;;;;;;;;17.75;16.00;;;;;27.09;41.51;101616.72;146602;569;46021;-72
2024/04/13 13:00:03;;;;;;;;;16.25;16.00;;;;;27.08;39.96;101608.75;146603;661;46010;-71
2024/04/13 13:03:01;;;;;;;;;17.00;15.25;;;;;27.04;40.88;101609.63;146609;656;46021;-73
2024/04/13 13:06:12;;;;;;;;;16.25;15.00;;;;;26.97;40.89;101607.91;146604;624;46016;-73
2024/04/13 13:09:13;;;;;;;;;15.50;15.50;;;;;26.96;40.19;101612.34;146605;622;47008;-70
2024/04/13 13:12:16;;;;;;;;;15.25;14.75;;;;;26.94;41.27;101596.34;146602;581;47010;-71
2024/04/13 13:15:24;;;;;;;;;16.25;15.50;;;;;25.72;40.58;101403.25;146607;598;46020;-72
2024/04/13 13:18:35;;;;;;;;;17.50;16.00;;;;;26.68;40.82;101590.22;146600;705;47012;-71
2024/04/13 13:21:49;;;;;;;;;17.25;15.75;;;;;26.61;42.14;101594.66;146606;684;47010;-72
2024/04/13 13:24:55;;;;;;;;;15.75;15.75;;;;;26.59;41.52;101590.22;146603;569;47016;-73
2024/04/13 13:28:15;;;;;;;;;16.00;13.50;;;;;25.74;40.77;101440.47;146600;607;47029;-72
2024/04/13 13:31:18;;;;;;;;;16.25;16.00;;;;;26.56;40.67;101580.47;146599;595;47012;-69
2024/04/13 13:34:41;;;;;;;;;15.75;15.75;;;;;25.41;41.76;101389.09;146605;579;46020;-69
2024/04/13 13:37:39;;;;;;;;;14.00;14.00;;;;;26.57;41.43;101582.22;146600;575;47016;-70
2024/04/13 13:40:50;;;;;;;;;14.50;14.50;;;;;26.68;41.41;101580.47;146607;566;46020;-69
2024/04/13 13:43:49;;;;;;;;;16.25;14.75;;;;;26.82;40.64;101576.88;146599;725;47010;-70
2024/04/13 13:46:57;;;;;;;;;12.75;12.00;;;;;25.93;40.53;101407.72;146607;648;46021;-70
2024/04/13 13:50:01;;;;;;;;;18.00;15.75;;;;;26.95;41.05;101574.19;146601;672;47010;-66
2024/04/13 13:53:07;;;;;;;;;;;;;;;;;;;;;
2024/04/13 13:56:14;;;;;;;;;14.25;14.25;;;;;26.74;40.37;101570.69;146602;612;46911;-67
2024/04/13 13:59:38;;;;;;;;;;;;;;;;;;;;;
2024/04/13 14:02:43;;;;;;;;;15.00;15.00;;;;;26.59;40.09;101572.50;146600;603;47010;-68
2024/04/13 14:05:38;;;;;;;;;15.00;13.25;;;;;26.51;40.48;101576.03;146606;634;47008;-68
2024/04/13 14:08:47;;;;;;;;;14.75;14.75;;;;;25.40;42.19;101386.47;146599;644;47011;-66
2024/04/13 14:11:45;;;;;;;;;15.50;14.75;;;;;26.43;41.42;101576.03;146604;576;47008;-69
2024/04/13 14:14:51;;;;;;;;;16.50;16.50;;;;;26.34;40.95;101579.56;146598;643;47010;-66
2024/04/13 14:17:58;;;;;;;;;17.00;16.00;;;;;25.27;41.89;101413.00;146605;616;47008;-69
2024/04/13 14:20:56;;;;;;;;;13.75;12.75;;;;;26.16;41.28;101567.16;146603;653;46016;-68
2024/04/13 14:23:57;;;;;;;;;16.25;13.50;;;;;26.00;41.69;101568.91;146604;638;46021;-69
2024/04/13 14:26:52;;;;;;;;;17.50;15.25;;;;;25.92;41.66;101569.78;146604;605;47010;-69
2024/04/13 14:29:50;;;;;;;;;18.50;15.75;;;;;25.90;42.11;101561.81;146598;674;47008;-70
2024/04/13 14:32:42;;;;;;;;;16.25;15.00;;;;;25.90;41.17;101561.81;146627;643;46010;-68
2024/04/13 14:35:48;;;;;;;;;;;;;;;;;;;;;
2024/04/13 14:38:54;;;;;;;;;17.00;16.00;;;;;25.68;41.60;101562.66;146629;684;46010;-68
2024/04/13 14:41:54;;;;;;;;;16.50;15.00;;;;;25.48;41.29;101558.19;146632;613;46010;-71
2024/04/13 14:44:50;;;;;;;;;13.75;12.50;;;;;25.34;42.45;101558.13;146628;571;45016;-69
2024/04/13 14:47:55;;;;;;;;;;;;;;;;;;;;;
2024/04/13 14:51:20;;;;;;;;;;;;;;;;;;;;;
2024/04/13 14:54:27;;;;;;;;;16.00;15.75;;;;;25.42;43.36;101552.84;146632;599;45021;-68
2024/04/13 14:57:43;;;;;;;;;19.00;16.50;;;;;25.47;43.47;101540.44;146629;601;46912;-72
2024/04/13 15:00:42;;;;;;;;;15.75;15.25;;;;;25.49;41.83;101554.63;146628;629;45008;-69
2024/04/13 15:03:53;;;;;;;;;22.50;20.00;;;;;24.35;42.47;101359.56;146628;566;45911;-70
2024/04/13 15:06:56;;;;;;;;;17.25;14.50;;;;;25.35;42.04;101543.94;146631;636;46011;-76
2024/04/13 15:10:01;;;;;;;;;;;;;;;;;;;;;
2024/04/13 15:13:02;;;;;;;;;17.25;16.50;;;;;25.34;42.72;101547.50;146633;607;46008;-66